createdAt,value
2023-05-03T00:01:09.876Z,44.73
2023-05-03T00:03:37.870Z,44.58
2023-05-03T00:06:14.783Z,44.77
2023-05-03T00:08:43.268Z,44.90
2023-05-03T00:11:11.282Z,45.15
2023-05-03T00:13:39.323Z,45.15
2023-05-03T00:16:07.748Z,44.42
2023-05-03T00:18:35.571Z,44.82
2023-05-03T00:21:03.904Z,45.19
2023-05-03T00:23:33.284Z,45.06
2023-05-03T00:26:01.123Z,44.69
2023-05-03T00:28:29.442Z,45.31
2023-05-03T00:30:57.235Z,45.01
2023-05-03T00:33:25.014Z,45.11
2023-05-03T00:35:53.539Z,45.55
2023-05-03T00:38:21.759Z,45.76
2023-05-03T00:40:56.678Z,45.08
2023-05-03T00:43:24.436Z,45.45
2023-05-03T00:45:55.316Z,45.44
2023-05-03T00:48:27.972Z,45.55
2023-05-03T00:50:58.070Z,45.70
2023-05-03T00:53:26.301Z,45.44
2023-05-03T00:55:56.864Z,45.72
2023-05-03T00:58:24.642Z,45.91
2023-05-03T01:00:52.427Z,45.83
2023-05-03T01:03:20.763Z,45.74
2023-05-03T01:06:01.087Z,46.15
2023-05-03T01:11:31.676Z,46.03
2023-05-03T01:14:07.342Z,46.03
2023-05-03T01:16:40.960Z,46.30
2023-05-03T01:19:18.346Z,46.19
2023-05-03T01:21:53.926Z,46.44
2023-05-03T01:24:26.604Z,45.99
2023-05-03T01:26:55.745Z,46.64
2023-05-03T01:29:23.488Z,46.45
2023-05-03T01:31:57.646Z,46.72
2023-05-03T01:34:34.662Z,46.35
2023-05-03T01:37:06.141Z,46.35
2023-05-03T01:39:43.816Z,46.85
2023-05-03T01:42:15.248Z,46.77
2023-05-03T01:44:44.066Z,46.91
2023-05-03T01:47:11.877Z,46.97
2023-05-03T01:49:40.204Z,46.94
2023-05-03T01:52:07.973Z,46.91
2023-05-03T01:54:35.728Z,47.11
2023-05-03T01:57:04.793Z,47.21
2023-05-03T01:59:33.914Z,47.31
2023-05-03T02:02:01.664Z,47.42
2023-05-03T02:04:30.965Z,47.25
2023-05-03T02:06:58.786Z,47.27
2023-05-03T02:09:26.744Z,47.80
2023-05-03T02:11:54.543Z,47.62
2023-05-03T02:14:22.320Z,47.64
2023-05-03T02:16:51.650Z,47.38
2023-05-03T02:19:20.300Z,47.48
2023-05-03T02:21:48.204Z,47.68
2023-05-03T02:24:16.550Z,47.38
2023-05-03T02:26:44.780Z,47.56
2023-05-03T02:29:12.582Z,47.72
2023-05-03T02:31:40.337Z,47.54
2023-05-03T02:34:10.989Z,47.65
2023-05-03T02:36:39.277Z,47.94
2023-05-03T02:39:07.188Z,47.98
2023-05-03T02:41:35.603Z,47.97
2023-05-03T02:44:03.374Z,48.48
2023-05-03T02:46:31.211Z,48.24
2023-05-03T02:48:59.486Z,48.56
2023-05-03T02:51:29.026Z,48.25
2023-05-03T02:53:56.765Z,48.14
2023-05-03T02:56:26.995Z,48.20
2023-05-03T02:58:54.855Z,48.64
2023-05-03T03:01:22.987Z,48.38
2023-05-03T03:03:51.502Z,48.56
2023-05-03T03:06:19.370Z,48.16
2023-05-03T03:08:48.551Z,49.04
2023-05-03T03:11:16.995Z,48.93
2023-05-03T03:13:44.946Z,48.58
2023-05-03T03:16:13.464Z,48.88
2023-05-03T03:18:41.712Z,48.83
2023-05-03T03:21:10.596Z,48.91
2023-05-03T03:23:38.368Z,48.83
2023-05-03T03:26:08.021Z,48.81
2023-05-03T03:28:35.566Z,48.54
2023-05-03T03:31:03.408Z,49.17
2023-05-03T03:33:31.901Z,49.04
2023-05-03T03:35:59.719Z,49.04
2023-05-03T03:38:27.462Z,49.03
2023-05-03T03:40:55.645Z,49.07
2023-05-03T03:43:24.808Z,49.43
2023-05-03T03:45:52.554Z,48.99
2023-05-03T03:48:20.975Z,49.29
2023-05-03T03:50:49.031Z,49.63
2023-05-03T03:53:16.825Z,49.68
2023-05-03T03:55:45.188Z,49.32
2023-05-03T03:58:12.931Z,49.62
2023-05-03T04:00:43.473Z,49.13
2023-05-03T04:03:12.141Z,49.34
2023-05-03T04:05:39.977Z,49.87
2023-05-03T04:08:07.780Z,49.52
2023-05-03T04:10:36.080Z,50.00
2023-05-03T04:13:03.840Z,49.60
2023-05-03T04:15:31.610Z,49.79
2023-05-03T04:18:00.816Z,49.51
2023-05-03T04:20:29.344Z,49.49
2023-05-03T04:22:57.197Z,49.51
2023-05-03T04:25:26.053Z,49.83
2023-05-03T04:27:53.833Z,49.85
2023-05-03T04:30:21.655Z,49.44
2023-05-03T04:32:49.975Z,49.90
2023-05-03T04:35:19.779Z,50.00
2023-05-03T04:37:47.832Z,49.96
2023-05-03T04:40:17.703Z,50.26
2023-05-03T04:42:45.508Z,50.24
2023-05-03T04:45:14.496Z,50.33
2023-05-03T04:47:43.074Z,50.44
2023-05-03T04:50:12.263Z,50.33
2023-05-03T04:52:41.396Z,50.32
2023-05-03T04:55:10.690Z,50.03
2023-05-03T04:57:38.483Z,50.56
2023-05-03T05:00:11.607Z,50.40
2023-05-03T05:02:39.558Z,50.54
2023-05-03T05:05:09.321Z,50.73
2023-05-03T05:07:37.487Z,49.88
2023-05-03T05:10:08.031Z,50.91
2023-05-03T05:12:35.867Z,51.06
2023-05-03T05:15:04.778Z,50.81
2023-05-03T05:17:32.606Z,50.69
2023-05-03T05:20:00.820Z,51.40
2023-05-03T05:22:29.338Z,50.80
2023-05-03T05:24:57.118Z,50.77
2023-05-03T05:27:28.180Z,50.90
2023-05-03T05:29:56.613Z,50.98
2023-05-03T05:32:24.637Z,50.90
2023-05-03T05:34:55.318Z,50.31
2023-05-03T05:37:23.810Z,50.48
2023-05-03T05:39:51.917Z,50.67
2023-05-03T05:42:19.704Z,50.26
2023-05-03T05:44:49.348Z,50.35
2023-05-03T05:47:17.111Z,50.17
2023-05-03T05:49:45.013Z,50.59
2023-05-03T05:52:13.335Z,50.41
2023-05-03T05:54:41.130Z,51.10
2023-05-03T05:57:08.935Z,50.53
2023-05-03T05:59:37.224Z,50.60
2023-05-03T06:02:07.329Z,50.44
2023-05-03T06:04:35.132Z,50.21
2023-05-03T06:07:03.526Z,50.28
2023-05-03T06:09:31.297Z,50.08
2023-05-03T06:11:59.063Z,50.30
2023-05-03T06:14:27.466Z,50.16
2023-05-03T06:16:55.308Z,50.11
2023-05-03T06:19:24.628Z,49.40
2023-05-03T06:21:53.108Z,49.69
2023-05-03T06:24:21.483Z,49.61
2023-05-03T06:26:49.724Z,49.17
2023-05-03T06:29:19.263Z,48.61
2023-05-03T06:31:47.058Z,49.15
2023-05-03T06:34:14.882Z,48.66
2023-05-03T06:36:44.532Z,48.76
2023-05-03T06:39:12.111Z,49.02
2023-05-03T06:41:39.900Z,48.56
2023-05-03T06:44:08.767Z,48.11
2023-05-03T06:46:36.850Z,48.31
2023-05-03T06:49:04.795Z,48.30
2023-05-03T06:51:33.974Z,48.27
2023-05-03T06:54:09.404Z,47.59
2023-05-03T06:56:38.607Z,48.05
2023-05-03T06:59:06.468Z,47.79
2023-05-03T07:01:34.402Z,47.03
2023-05-03T07:04:03.145Z,47.09
2023-05-03T07:06:37.778Z,47.78
2023-05-03T07:09:14.554Z,46.88
2023-05-03T07:11:49.292Z,46.91
2023-05-03T07:14:17.538Z,46.61
2023-05-03T07:16:45.561Z,46.44
2023-05-03T07:19:13.417Z,46.27
2023-05-03T07:21:41.704Z,45.79
2023-05-03T07:24:09.783Z,45.75
2023-05-03T07:26:38.928Z,44.83
2023-05-03T07:29:07.210Z,45.60
2023-05-03T07:31:35.202Z,45.30
2023-05-03T07:34:03.149Z,45.12
2023-05-03T07:36:32.514Z,44.77
2023-05-03T07:39:00.298Z,44.50
2023-05-03T07:41:28.091Z,44.67
2023-05-03T07:43:57.258Z,43.98
2023-05-03T07:46:25.100Z,44.53
2023-05-03T07:48:52.967Z,44.50
2023-05-03T07:51:21.458Z,43.96
2023-05-03T07:53:49.221Z,44.36
2023-05-03T07:56:17.245Z,44.11
2023-05-03T07:58:48.703Z,43.47
2023-05-03T08:01:21.176Z,42.66
2023-05-03T08:03:50.712Z,42.47
2023-05-03T08:06:18.521Z,42.31
2023-05-03T08:08:47.045Z,43.36
2023-05-03T08:11:15.577Z,42.68
2023-05-03T08:13:43.355Z,42.40
2023-05-03T08:16:11.563Z,43.00
2023-05-03T08:18:41.384Z,42.83
2023-05-03T08:21:12.191Z,42.37
2023-05-03T08:23:40.541Z,42.37
2023-05-03T08:26:10.005Z,42.25
2023-05-03T08:28:37.980Z,41.41
2023-05-03T08:31:05.914Z,42.01
2023-05-03T08:33:34.581Z,41.22
2023-05-03T08:36:03.988Z,41.17
2023-05-03T08:38:32.673Z,41.31
2023-05-03T08:41:08.219Z,39.61
2023-05-03T08:43:42.310Z,40.64
2023-05-03T08:46:12.850Z,39.97
2023-05-03T08:48:40.882Z,40.53
2023-05-03T08:51:11.216Z,39.74
2023-05-03T08:56:31.647Z,39.83
2023-05-03T08:59:07.970Z,40.74
2023-05-03T09:01:37.195Z,40.08
2023-05-03T09:04:05.547Z,38.43
2023-05-03T09:06:37.066Z,39.42
2023-05-03T09:09:07.373Z,39.02
2023-05-03T09:11:37.723Z,38.85
2023-05-03T09:14:13.361Z,38.80
2023-05-03T09:16:43.894Z,38.33
2023-05-03T09:19:12.973Z,37.82
2023-05-03T09:21:44.229Z,38.16
2023-05-03T09:24:15.978Z,37.04
2023-05-03T09:26:44.773Z,36.66
2023-05-03T09:29:29.124Z,38.04
2023-05-03T09:32:01.786Z,38.58
2023-05-03T09:34:29.702Z,38.23
2023-05-03T09:36:59.548Z,37.03
2023-05-03T09:39:28.146Z,37.83
2023-05-03T09:41:55.994Z,37.49
2023-05-03T09:44:43.214Z,37.47
2023-05-03T09:47:12.313Z,37.30
2023-05-03T09:49:40.734Z,38.51
2023-05-03T09:52:11.591Z,37.67
2023-05-03T09:54:39.746Z,37.51
2023-05-03T09:57:09.093Z,38.05
2023-05-03T09:59:39.236Z,37.87
2023-05-03T10:02:08.839Z,37.73
2023-05-03T10:04:40.559Z,38.68
2023-05-03T10:07:14.922Z,38.25
2023-05-03T10:09:46.136Z,37.11
2023-05-03T10:12:17.177Z,37.45
2023-05-03T10:14:48.299Z,37.28
2023-05-03T10:17:29.240Z,37.03
2023-05-03T10:20:17.596Z,37.00
2023-05-03T10:23:12.745Z,37.61
2023-05-03T10:26:02.252Z,36.57
2023-05-03T10:28:30.246Z,36.43
2023-05-03T10:30:58.074Z,36.55
2023-05-03T10:33:34.944Z,36.20
2023-05-03T10:36:07.167Z,36.28
2023-05-03T10:38:38.568Z,36.02
2023-05-03T10:41:07.103Z,36.31
2023-05-03T10:43:46.921Z,35.91
2023-05-03T10:46:39.053Z,36.62
2023-05-03T10:49:20.906Z,36.32
2023-05-03T10:51:49.137Z,36.67
2023-05-03T10:54:19.568Z,36.15
2023-05-03T10:56:56.355Z,36.27
2023-05-03T10:59:25.964Z,35.59
2023-05-03T11:01:54.581Z,35.17
2023-05-03T11:04:35.776Z,35.49
2023-05-03T11:07:04.567Z,35.57
2023-05-03T11:09:35.623Z,35.97
2023-05-03T11:12:08.599Z,36.39
2023-05-03T11:14:37.105Z,35.25
2023-05-03T11:17:04.999Z,35.73
2023-05-03T11:19:33.620Z,35.23
2023-05-03T11:22:03.264Z,35.21
2023-05-03T11:24:31.050Z,34.79
2023-05-03T11:27:00.273Z,35.10
2023-05-03T11:29:36.862Z,34.90
2023-05-03T11:32:04.818Z,33.96
2023-05-03T11:34:32.828Z,34.78
2023-05-03T11:37:01.355Z,34.12
2023-05-03T11:39:29.560Z,33.60
2023-05-03T11:42:08.838Z,33.79
2023-05-03T11:44:37.706Z,34.06
2023-05-03T11:47:06.572Z,34.28
2023-05-03T11:49:35.210Z,34.67
2023-05-03T11:52:03.231Z,34.47
2023-05-03T11:54:31.784Z,34.58
2023-05-03T11:57:01.244Z,33.56
2023-05-03T11:59:38.170Z,33.78
2023-05-03T12:02:09.972Z,33.79
2023-05-03T12:04:42.698Z,34.10
2023-05-03T12:07:17.146Z,34.13
2023-05-03T12:09:52.892Z,33.21
2023-05-03T12:12:37.336Z,34.00
2023-05-03T12:15:13.722Z,34.51
2023-05-03T12:17:45.639Z,34.59
2023-05-03T12:20:51.096Z,34.08
2023-05-03T12:23:09.910Z,34.34
2023-05-03T12:25:40.538Z,33.35
2023-05-03T12:28:20.288Z,33.52
2023-05-03T12:30:53.209Z,33.78
2023-05-03T12:33:23.220Z,32.89
2023-05-03T12:35:53.401Z,33.58
2023-05-03T12:38:23.958Z,33.35
2023-05-03T12:40:53.185Z,33.72
2023-05-03T12:43:21.648Z,33.21
2023-05-03T12:46:06.035Z,33.12
2023-05-03T12:48:40.166Z,33.51
2023-05-03T12:51:19.412Z,32.42
2023-05-03T12:53:54.143Z,33.21
2023-05-03T12:56:25.076Z,32.61
2023-05-03T12:59:14.972Z,32.19
2023-05-03T13:06:47.147Z,32.28
2023-05-03T13:09:21.497Z,32.03
2023-05-03T13:11:53.227Z,31.81
2023-05-03T13:14:21.312Z,32.11
2023-05-03T13:16:51.235Z,32.00
2023-05-03T13:19:19.363Z,31.57
2023-05-03T13:21:48.844Z,31.40
2023-05-03T13:24:16.737Z,32.24
2023-05-03T13:26:44.826Z,31.83
2023-05-03T13:29:12.608Z,32.25
2023-05-03T13:31:40.664Z,31.47
2023-05-03T13:34:10.073Z,32.30
2023-05-03T13:36:37.826Z,31.95
2023-05-03T13:39:09.570Z,31.97
2023-05-03T13:41:38.957Z,32.55
2023-05-03T13:44:06.922Z,33.12
2023-05-03T13:46:37.966Z,32.53
2023-05-03T13:49:07.295Z,32.07
2023-05-03T13:51:36.700Z,32.08
2023-05-03T13:54:06.982Z,32.07
2023-05-03T13:56:35.878Z,31.76
2023-05-03T13:59:04.365Z,31.92
2023-05-03T14:01:32.453Z,31.59
2023-05-03T14:04:00.324Z,32.08
2023-05-03T14:06:29.908Z,31.78
2023-05-03T14:09:02.415Z,31.74
2023-05-03T14:11:31.460Z,31.40
2023-05-03T14:13:59.547Z,31.96
2023-05-03T14:18:59.736Z,31.73
2023-05-03T14:21:30.161Z,31.30
2023-05-03T14:23:57.931Z,30.84
2023-05-03T14:26:29.774Z,32.10
2023-05-03T14:28:57.724Z,32.36
2023-05-03T14:31:26.291Z,33.17
2023-05-03T14:33:55.463Z,32.43
2023-05-03T14:36:23.326Z,32.87
2023-05-03T14:38:51.113Z,32.69
2023-05-03T14:41:19.436Z,32.30
2023-05-03T14:43:48.621Z,32.78
2023-05-03T14:46:16.485Z,32.09
2023-05-03T14:48:44.332Z,31.45
2023-05-03T14:51:12.193Z,31.19
2023-05-03T14:53:40.004Z,31.30
2023-05-03T14:56:08.680Z,33.22
2023-05-03T14:58:36.456Z,31.78
2023-05-03T15:01:06.461Z,31.67
2023-05-03T15:03:35.355Z,31.89
2023-05-03T15:06:03.254Z,30.70
2023-05-03T15:08:31.347Z,31.43
2023-05-03T15:10:59.683Z,31.24
2023-05-03T15:13:28.006Z,31.20
2023-05-03T15:15:56.885Z,31.02
2023-05-03T15:18:27.869Z,30.08
2023-05-03T15:20:55.905Z,31.05
2023-05-03T15:23:24.098Z,31.20
2023-05-03T15:25:52.714Z,31.26
2023-05-03T15:28:21.116Z,31.49
2023-05-03T15:30:50.927Z,31.62
2023-05-03T15:33:19.378Z,31.38
2023-05-03T15:35:48.610Z,30.74
2023-05-03T15:38:17.942Z,30.74
2023-05-03T15:40:46.060Z,30.50
2023-05-03T15:43:13.902Z,30.47
2023-05-03T15:45:41.741Z,30.86
2023-05-03T15:48:09.829Z,30.78
2023-05-03T15:50:38.004Z,30.82
2023-05-03T15:53:07.384Z,31.04
2023-05-03T15:55:35.795Z,30.76
2023-05-03T15:58:03.784Z,30.57
2023-05-03T16:00:33.709Z,30.66
2023-05-03T16:03:02.202Z,30.60
2023-05-03T16:05:31.378Z,30.53
2023-05-03T16:07:59.230Z,31.18
2023-05-03T16:10:29.060Z,30.72
2023-05-03T16:12:56.882Z,31.22
2023-05-03T16:15:25.047Z,31.12
2023-05-03T16:17:54.647Z,31.14
2023-05-03T16:20:22.664Z,31.37
2023-05-03T16:22:52.947Z,31.03
2023-05-03T16:25:22.095Z,31.29
2023-05-03T16:27:51.237Z,31.08
2023-05-03T16:30:19.040Z,30.97
2023-05-03T16:32:48.593Z,31.08
2023-05-03T16:35:16.449Z,31.19
2023-05-03T16:37:44.229Z,31.24
2023-05-03T16:40:12.403Z,31.59
2023-05-03T16:42:40.888Z,31.55
2023-05-03T16:45:11.386Z,30.62
2023-05-03T16:47:40.040Z,30.93
2023-05-03T16:50:09.235Z,31.04
2023-05-03T16:52:40.030Z,30.74
2023-05-03T16:55:09.214Z,31.18
2023-05-03T16:57:37.534Z,31.12
2023-05-03T17:00:09.624Z,30.88
2023-05-03T17:02:39.992Z,31.15
2023-05-03T17:05:10.500Z,31.19
2023-05-03T17:07:38.352Z,31.32
2023-05-03T17:10:07.652Z,31.43
2023-05-03T17:12:36.076Z,31.36
2023-05-03T17:15:04.185Z,31.58
2023-05-03T17:17:32.974Z,31.37
2023-05-03T17:20:03.182Z,31.55
2023-05-03T17:22:31.317Z,31.91
2023-05-03T17:24:59.167Z,31.82
2023-05-03T17:27:27.662Z,32.17
2023-05-03T17:29:56.905Z,32.00
2023-05-03T17:32:24.777Z,32.30
2023-05-03T17:34:53.044Z,32.36
2023-05-03T17:37:23.738Z,32.36
2023-05-03T17:39:51.588Z,32.37
2023-05-03T17:42:19.388Z,32.67
2023-05-03T17:44:47.729Z,32.50
2023-05-03T17:47:16.845Z,32.75
2023-05-03T17:49:45.419Z,32.65
2023-05-03T17:52:13.326Z,32.66
2023-05-03T17:54:43.214Z,32.68
2023-05-03T17:57:11.688Z,32.60
2023-05-03T17:59:39.706Z,32.81
2023-05-03T18:02:07.904Z,32.98
2023-05-03T18:04:36.686Z,33.06
2023-05-03T18:07:04.493Z,33.30
2023-05-03T18:09:33.005Z,33.22
2023-05-03T18:12:03.908Z,33.72
2023-05-03T18:14:31.915Z,33.74
2023-05-03T18:16:59.681Z,33.97
2023-05-03T18:19:27.717Z,35.79
2023-05-03T18:21:55.496Z,34.57
2023-05-03T18:24:23.726Z,34.58
2023-05-03T18:26:52.027Z,34.70
2023-05-03T18:29:21.227Z,34.40
2023-05-03T18:31:49.393Z,34.47
2023-05-03T18:34:17.770Z,34.49
2023-05-03T18:36:45.695Z,34.33
2023-05-03T18:39:13.543Z,34.91
2023-05-03T18:41:42.219Z,34.41
2023-05-03T18:44:10.033Z,34.37
2023-05-03T18:46:39.221Z,34.56
2023-05-03T18:49:07.834Z,34.53
2023-05-03T18:51:35.611Z,34.55
2023-05-03T18:54:03.406Z,34.56
2023-05-03T18:56:32.499Z,34.50
2023-05-03T18:59:00.274Z,34.47
2023-05-03T19:01:28.231Z,34.13
2023-05-03T19:03:58.077Z,34.42
2023-05-03T19:06:25.962Z,34.34
2023-05-03T19:08:56.989Z,34.24
2023-05-03T19:11:26.974Z,34.61
2023-05-03T19:13:54.900Z,34.58
2023-05-03T19:16:22.824Z,34.74
2023-05-03T19:18:51.180Z,34.47
2023-05-03T19:21:20.562Z,34.72
2023-05-03T19:23:48.505Z,34.73
2023-05-03T19:26:16.975Z,34.71
2023-05-03T19:28:44.747Z,34.98
2023-05-03T19:31:12.556Z,34.77
2023-05-03T19:33:40.960Z,34.74
2023-05-03T19:36:13.400Z,35.05
2023-05-03T19:38:43.053Z,35.30
2023-05-03T19:41:12.328Z,34.88
2023-05-03T19:43:40.527Z,35.19
2023-05-03T19:46:08.984Z,35.22
2023-05-03T19:48:36.823Z,35.12
2023-05-03T19:51:05.757Z,35.18
2023-05-03T19:53:34.018Z,35.00
2023-05-03T19:56:03.895Z,35.20
2023-05-03T19:58:31.982Z,35.12
2023-05-03T20:01:00.524Z,35.34
2023-05-03T20:03:28.639Z,35.36
2023-05-03T20:05:56.519Z,35.39
2023-05-03T20:08:24.897Z,35.44
2023-05-03T20:10:53.276Z,35.53
2023-05-03T20:13:26.278Z,35.65
2023-05-03T20:15:54.313Z,35.61
2023-05-03T20:18:22.162Z,35.30
2023-05-03T20:20:50.401Z,35.23
2023-05-03T20:23:18.163Z,35.23
2023-05-03T20:25:45.940Z,35.48
2023-05-03T20:28:14.333Z,35.58
2023-05-03T20:30:44.100Z,35.11
2023-05-03T20:33:12.333Z,35.11
2023-05-03T20:35:40.465Z,35.32
2023-05-03T20:38:08.342Z,35.32
2023-05-03T20:40:36.285Z,35.53
2023-05-03T20:43:04.473Z,35.43
2023-05-03T20:45:32.853Z,35.66
2023-05-03T20:48:02.104Z,35.61
2023-05-03T20:50:30.180Z,35.58
2023-05-03T20:52:57.965Z,35.61
2023-05-03T20:55:25.894Z,35.66
2023-05-03T20:57:53.882Z,35.75
2023-05-03T21:00:22.189Z,35.88
2023-05-03T21:02:54.725Z,35.80
2023-05-03T21:05:24.120Z,35.88
2023-05-03T21:07:52.899Z,35.90
2023-05-03T21:10:21.140Z,35.83
2023-05-03T21:12:48.971Z,36.24
2023-05-03T21:15:16.804Z,36.18
2023-05-03T21:17:44.790Z,36.11
2023-05-03T21:20:13.322Z,36.33
2023-05-03T21:22:42.497Z,36.50
2023-05-03T21:25:11.784Z,36.39
2023-05-03T21:27:39.622Z,36.32
2023-05-03T21:30:08.764Z,36.66
2023-05-03T21:32:36.895Z,36.57
2023-05-03T21:35:04.940Z,36.64
2023-05-03T21:37:32.719Z,36.60
2023-05-03T21:40:02.997Z,36.60
2023-05-03T21:42:31.081Z,36.62
2023-05-03T21:44:59.033Z,37.06
2023-05-03T21:47:27.951Z,37.05
2023-05-03T21:49:55.810Z,36.97
2023-05-03T21:52:23.836Z,37.42
2023-05-03T21:54:54.165Z,37.50
2023-05-03T21:57:23.787Z,37.62
2023-05-03T21:59:51.351Z,37.38
2023-05-03T22:02:19.654Z,37.41
2023-05-03T22:04:47.999Z,37.73
2023-05-03T22:07:16.505Z,37.91
2023-05-03T22:09:47.852Z,37.54
2023-05-03T22:14:49.002Z,38.41
2023-05-03T22:17:17.057Z,38.23
2023-05-03T22:19:44.979Z,38.12
2023-05-03T22:22:13.557Z,38.31
2023-05-03T22:24:41.787Z,38.53
2023-05-03T22:27:09.692Z,37.98
2023-05-03T22:29:38.250Z,38.30
2023-05-03T22:32:07.814Z,38.50
2023-05-03T22:34:35.667Z,37.71
2023-05-03T22:37:03.717Z,38.15
2023-05-03T22:39:32.432Z,38.16
2023-05-03T22:42:00.874Z,38.52
2023-05-03T22:44:29.264Z,38.29
2023-05-03T22:46:57.401Z,38.65
2023-05-03T22:49:26.872Z,38.93
2023-05-03T22:51:55.114Z,38.62
2023-05-03T22:54:23.071Z,39.32
2023-05-03T22:56:51.660Z,39.01
2023-05-03T22:59:20.042Z,39.03
2023-05-03T23:01:49.629Z,38.92
2023-05-03T23:04:17.906Z,39.35
2023-05-03T23:06:47.523Z,39.35
2023-05-03T23:09:15.215Z,38.26
2023-05-03T23:11:43.230Z,39.50
2023-05-03T23:14:11.678Z,39.49
2023-05-03T23:16:39.820Z,39.50
2023-05-03T23:19:08.315Z,39.08
2023-05-03T23:21:36.663Z,39.23
2023-05-03T23:24:06.428Z,39.90
2023-05-03T23:26:34.391Z,39.65
2023-05-03T23:29:03.078Z,39.58
2023-05-03T23:31:31.644Z,40.11
2023-05-03T23:34:01.582Z,39.04
2023-05-03T23:36:29.902Z,39.46
2023-05-03T23:38:57.706Z,40.10
2023-05-03T23:41:27.151Z,40.01
2023-05-03T23:43:55.293Z,40.13
2023-05-03T23:46:23.323Z,39.81
2023-05-03T23:48:51.427Z,40.38
2023-05-03T23:51:19.557Z,40.12
2023-05-03T23:53:47.674Z,40.22
2023-05-03T23:56:16.092Z,40.71
2023-05-03T23:58:46.019Z,40.56
